Plainville, Massachusetts
Current Conditions -  °F | °C
As of 6:35 AM on Thursday 18 Dec 2014 (Local Time) from KSFZ Reporting Station
Overcast Overcast  
Wind Chill: 25°   Ceiling: 1700
Heat Index: 34°   Visibility: 5mi
Dew Point: 27°   Wind: 12mph
Humidity: 75%   Direction: 270°W
Pressure: 29.75"   Gusts: 18mph
Location:  42°N, 71.33°W
Report Text: KSFZ 181135Z 27010G16KT 5SM BKN017 OVC026 01/M03 A2975 RMK AO1
Loading
Personal Weather Stations






























Interactive Weather Map New forecast layout! Learn more

10-Day Weather Forecast

Advertisements
Track Severe Weather on mobile